YJY YWCK-YBBN
Flight info
| Callsign | YJY |
|---|---|
| Flight time | N/A |
| Altitude | 9000 |
| Route | N0173A090 DCT ENLIP |
| Aircraft | SR22/L-SDGRY/S |
Departure
| Time | 2026-04-27 12:09 |
|---|---|
| Airport | Warwick Airport (YWCK) |
Arrival
| Time | N/A |
|---|---|
| Airport | Brisbane International Airport (YBBN) |
| Time | Latitude | Longitude | Altitude | Speed | Heading |
|---|---|---|---|---|---|
| 2026-04-27 12:05 | -28.14864 | 151.94457 | 1526 ft | 4 kts | 134° |
| 2026-04-27 12:06 | -28.14904 | 151.94454 | 1527 ft | 0 kts | 186° |
| 2026-04-27 12:06 | -28.14906 | 151.94453 | 1527 ft | 0 kts | 188° |
| 2026-04-27 12:06 | -28.14907 | 151.94453 | 1527 ft | 2 kts | 189° |
| 2026-04-27 12:07 | -28.14966 | 151.94423 | 1527 ft | 14 kts | 273° |
| 2026-04-27 12:07 | -28.14941 | 151.94252 | 1525 ft | 27 kts | 279° |
| 2026-04-27 12:07 | -28.14909 | 151.94024 | 1524 ft | 31 kts | 279° |
| 2026-04-27 12:07 | -28.14876 | 151.93774 | 1522 ft | 32 kts | 277° |
| 2026-04-27 12:08 | -28.14846 | 151.93571 | 1522 ft | 19 kts | 277° |
| 2026-04-27 12:08 | -28.14838 | 151.93503 | 1521 ft | 4 kts | 58° |
| 2026-04-27 12:08 | -28.14842 | 151.93540 | 1522 ft | 8 kts | 100° |
| 2026-04-27 12:08 | -28.14888 | 151.93876 | 1523 ft | 77 kts | 98° |
| 2026-04-27 12:09 | -28.14990 | 151.94556 | 1717 ft | 91 kts | 100° |
| 2026-04-27 12:09 | -28.15055 | 151.94970 | 1885 ft | 91 kts | 100° |
| 2026-04-27 12:09 | -28.15121 | 151.95679 | 2193 ft | 94 kts | 76° |
| 2026-04-27 12:09 | -28.14668 | 151.96285 | 2493 ft | 109 kts | 43° |
| 2026-04-27 12:10 | -28.14171 | 151.96913 | 2878 ft | 105 kts | 71° |
| 2026-04-27 12:10 | -28.13908 | 151.97655 | 3332 ft | 99 kts | 78° |
| 2026-04-27 12:10 | -28.13659 | 151.98373 | 3755 ft | 97 kts | 78° |
| 2026-04-27 12:10 | -28.13454 | 151.99075 | 4144 ft | 90 kts | 81° |
| 2026-04-27 12:11 | -28.13248 | 151.99766 | 4449 ft | 93 kts | 80° |
| 2026-04-27 12:11 | -28.13040 | 152.00449 | 4779 ft | 93 kts | 80° |
| 2026-04-27 12:11 | -28.12826 | 152.01146 | 5125 ft | 94 kts | 79° |
| 2026-04-27 12:11 | -28.12608 | 152.01855 | 5474 ft | 96 kts | 78° |
| 2026-04-27 12:12 | -28.12387 | 152.02573 | 5826 ft | 98 kts | 78° |
| 2026-04-27 12:12 | -28.12157 | 152.03310 | 6173 ft | 100 kts | 77° |
| 2026-04-27 12:12 | -28.11922 | 152.04063 | 6522 ft | 102 kts | 76° |
| 2026-04-27 12:12 | -28.11684 | 152.04833 | 6858 ft | 104 kts | 75° |
| 2026-04-27 12:13 | -28.11443 | 152.05613 | 7196 ft | 106 kts | 75° |
| 2026-04-27 12:13 | -28.11197 | 152.06405 | 7530 ft | 107 kts | 75° |
| 2026-04-27 12:13 | -28.10948 | 152.07206 | 7880 ft | 108 kts | 75° |
| 2026-04-27 12:13 | -28.10699 | 152.08014 | 8235 ft | 109 kts | 75° |
| 2026-04-27 12:14 | -28.10444 | 152.08833 | 8590 ft | 110 kts | 75° |
| 2026-04-27 12:14 | -28.10186 | 152.09657 | 8952 ft | 112 kts | 74° |
| 2026-04-27 12:14 | -28.09901 | 152.10583 | 9024 ft | 136 kts | 73° |
| 2026-04-27 12:14 | -28.09569 | 152.11653 | 9021 ft | 154 kts | 73° |
| 2026-04-27 12:15 | -28.09198 | 152.12841 | 9025 ft | 165 kts | 73° |
| 2026-04-27 12:15 | -28.08809 | 152.14093 | 9014 ft | 171 kts | 73° |